sensor_id;sensor_type;location;lat;lon;timestamp;temperature;humidity
68826;DHT22;55841;53.392;10.086;2022-12-18T00:00:45;-4.60;80.40
68826;DHT22;55841;53.392;10.086;2022-12-18T00:03:10;-4.60;80.60
68826;DHT22;55841;53.392;10.086;2022-12-18T00:05:36;-4.60;80.90
68826;DHT22;55841;53.392;10.086;2022-12-18T00:08:02;-4.70;81.10
68826;DHT22;55841;53.392;10.086;2022-12-18T00:10:28;-4.70;81.30
68826;DHT22;55841;53.392;10.086;2022-12-18T00:12:54;-4.40;80.80
68826;DHT22;55841;53.392;10.086;2022-12-18T00:15:19;-4.70;80.60
68826;DHT22;55841;53.392;10.086;2022-12-18T00:17:45;-4.70;80.30
68826;DHT22;55841;53.392;10.086;2022-12-18T00:20:10;-4.70;80.20
68826;DHT22;55841;53.392;10.086;2022-12-18T00:22:36;-4.70;80.00
68826;DHT22;55841;53.392;10.086;2022-12-18T00:25:02;-4.80;79.90
68826;DHT22;55841;53.392;10.086;2022-12-18T00:27:27;-4.80;80.20
68826;DHT22;55841;53.392;10.086;2022-12-18T00:29:53;-4.80;80.60
68826;DHT22;55841;53.392;10.086;2022-12-18T00:32:18;-4.60;80.10
68826;DHT22;55841;53.392;10.086;2022-12-18T00:34:44;-4.80;80.40
68826;DHT22;55841;53.392;10.086;2022-12-18T00:37:09;-4.80;80.80
68826;DHT22;55841;53.392;10.086;2022-12-18T00:39:35;-4.80;80.70
68826;DHT22;55841;53.392;10.086;2022-12-18T00:42:00;-4.80;81.00
68826;DHT22;55841;53.392;10.086;2022-12-18T00:44:26;-4.90;81.10
68826;DHT22;55841;53.392;10.086;2022-12-18T00:46:51;-4.90;81.30
68826;DHT22;55841;53.392;10.086;2022-12-18T00:49:18;-4.70;81.40
68826;DHT22;55841;53.392;10.086;2022-12-18T00:51:43;-4.90;81.20
68826;DHT22;55841;53.392;10.086;2022-12-18T00:54:09;-4.60;82.00
68826;DHT22;55841;53.392;10.086;2022-12-18T00:56:36;-4.70;81.80
68826;DHT22;55841;53.392;10.086;2022-12-18T00:59:02;-4.80;81.70
68826;DHT22;55841;53.392;10.086;2022-12-18T01:01:27;-4.80;81.60
68826;DHT22;55841;53.392;10.086;2022-12-18T01:03:53;-4.80;81.40
68826;DHT22;55841;53.392;10.086;2022-12-18T01:06:18;-4.80;81.30
68826;DHT22;55841;53.392;10.086;2022-12-18T01:08:44;-4.90;81.30
68826;DHT22;55841;53.392;10.086;2022-12-18T01:11:15;-4.90;81.40
68826;DHT22;55841;53.392;10.086;2022-12-18T01:13:41;-4.90;81.30
68826;DHT22;55841;53.392;10.086;2022-12-18T01:16:08;-4.90;81.10
68826;DHT22;55841;53.392;10.086;2022-12-18T01:18:33;-4.90;80.90
68826;DHT22;55841;53.392;10.086;2022-12-18T01:20:59;-5.00;80.80
68826;DHT22;55841;53.392;10.086;2022-12-18T01:23:24;-5.00;80.70
68826;DHT22;55841;53.392;10.086;2022-12-18T01:25:50;-4.80;80.90
68826;DHT22;55841;53.392;10.086;2022-12-18T01:28:15;-5.10;80.90
68826;DHT22;55841;53.392;10.086;2022-12-18T01:30:41;-5.10;80.90
68826;DHT22;55841;53.392;10.086;2022-12-18T01:33:06;-5.10;80.60
68826;DHT22;55841;53.392;10.086;2022-12-18T01:35:32;-5.10;80.30
68826;DHT22;55841;53.392;10.086;2022-12-18T01:37:57;-4.80;80.80
68826;DHT22;55841;53.392;10.086;2022-12-18T01:40:23;-5.00;80.80
68826;DHT22;55841;53.392;10.086;2022-12-18T01:42:52;-5.00;81.10
68826;DHT22;55841;53.392;10.086;2022-12-18T01:47:47;-5.00;81.70
68826;DHT22;55841;53.392;10.086;2022-12-18T01:50:22;-5.00;81.50
68826;DHT22;55841;53.392;10.086;2022-12-18T01:53:13;-5.00;81.40
68826;DHT22;55841;53.392;10.086;2022-12-18T01:55:53;-5.00;81.00
68826;DHT22;55841;53.392;10.086;2022-12-18T01:58:28;-5.00;81.10
68826;DHT22;55841;53.392;10.086;2022-12-18T02:00:55;-5.10;81.10
68826;DHT22;55841;53.392;10.086;2022-12-18T02:03:20;-5.10;80.70
68826;DHT22;55841;53.392;10.086;2022-12-18T02:05:51;-5.20;80.50
68826;DHT22;55841;53.392;10.086;2022-12-18T02:08:25;-5.30;80.70
68826;DHT22;55841;53.392;10.086;2022-12-18T02:14:17;-5.40;80.90
68826;DHT22;55841;53.392;10.086;2022-12-18T02:17:05;-5.40;81.40
68826;DHT22;55841;53.392;10.086;2022-12-18T02:25:07;-5.50;81.70
68826;DHT22;55841;53.392;10.086;2022-12-18T02:27:37;-5.50;81.70
68826;DHT22;55841;53.392;10.086;2022-12-18T02:30:03;-5.50;81.50
68826;DHT22;55841;53.392;10.086;2022-12-18T02:32:39;-5.50;81.50
68826;DHT22;55841;53.392;10.086;2022-12-18T02:35:08;-5.50;81.50
68826;DHT22;55841;53.392;10.086;2022-12-18T02:37:35;-5.50;81.50
68826;DHT22;55841;53.392;10.086;2022-12-18T02:40:05;-5.60;81.30
68826;DHT22;55841;53.392;10.086;2022-12-18T02:42:31;-5.60;81.60
68826;DHT22;55841;53.392;10.086;2022-12-18T02:44:57;-5.50;82.80
68826;DHT22;55841;53.392;10.086;2022-12-18T02:47:27;-5.40;83.10
68826;DHT22;55841;53.392;10.086;2022-12-18T02:53:12;-5.30;83.00
68826;DHT22;55841;53.392;10.086;2022-12-18T02:56:22;-5.30;82.30
68826;DHT22;55841;53.392;10.086;2022-12-18T02:58:44;-5.20;82.20
68826;DHT22;55841;53.392;10.086;2022-12-18T03:02:29;-5.20;81.70
68826;DHT22;55841;53.392;10.086;2022-12-18T03:04:39;-5.10;81.40
68826;DHT22;55841;53.392;10.086;2022-12-18T03:07:14;-5.10;81.20
68826;DHT22;55841;53.392;10.086;2022-12-18T03:09:44;-5.10;81.20
68826;DHT22;55841;53.392;10.086;2022-12-18T03:12:17;-5.10;80.70
68826;DHT22;55841;53.392;10.086;2022-12-18T03:14:45;-5.10;80.40
68826;DHT22;55841;53.392;10.086;2022-12-18T03:17:17;-5.20;80.30
68826;DHT22;55841;53.392;10.086;2022-12-18T03:19:46;-5.30;80.40
68826;DHT22;55841;53.392;10.086;2022-12-18T03:22:13;-5.30;79.80
68826;DHT22;55841;53.392;10.086;2022-12-18T03:24:40;-5.40;79.70
68826;DHT22;55841;53.392;10.086;2022-12-18T03:27:11;-5.50;79.70
68826;DHT22;55841;53.392;10.086;2022-12-18T03:29:47;-5.60;79.70
68826;DHT22;55841;53.392;10.086;2022-12-18T03:32:35;-5.60;80.10
68826;DHT22;55841;53.392;10.086;2022-12-18T03:35:05;-5.70;79.80
68826;DHT22;55841;53.392;10.086;2022-12-18T03:37:31;-5.80;80.00
68826;DHT22;55841;53.392;10.086;2022-12-18T03:39:56;-5.80;80.10
68826;DHT22;55841;53.392;10.086;2022-12-18T03:53:17;-6.10;80.40
68826;DHT22;55841;53.392;10.086;2022-12-18T03:55:45;-6.10;80.70
68826;DHT22;55841;53.392;10.086;2022-12-18T03:58:16;-6.10;80.70
68826;DHT22;55841;53.392;10.086;2022-12-18T04:00:43;-5.90;80.50
68826;DHT22;55841;53.392;10.086;2022-12-18T04:03:10;-6.20;80.50
68826;DHT22;55841;53.392;10.086;2022-12-18T04:05:36;-6.00;80.50
68826;DHT22;55841;53.392;10.086;2022-12-18T04:08:03;-6.20;80.30
68826;DHT22;55841;53.392;10.086;2022-12-18T04:10:29;-6.20;80.20
68826;DHT22;55841;53.392;10.086;2022-12-18T04:12:58;-6.20;80.00
68826;DHT22;55841;53.392;10.086;2022-12-18T04:15:24;-6.20;80.00
68826;DHT22;55841;53.392;10.086;2022-12-18T04:17:50;-6.00;80.00
68826;DHT22;55841;53.392;10.086;2022-12-18T04:20:16;-6.30;79.60
68826;DHT22;55841;53.392;10.086;2022-12-18T04:22:42;-6.30;79.70
68826;DHT22;55841;53.392;10.086;2022-12-18T04:25:13;-6.30;79.90
68826;DHT22;55841;53.392;10.086;2022-12-18T04:27:38;-6.30;80.10
68826;DHT22;55841;53.392;10.086;2022-12-18T04:30:04;-6.30;80.20
68826;DHT22;55841;53.392;10.086;2022-12-18T04:32:30;-6.30;80.20
68826;DHT22;55841;53.392;10.086;2022-12-18T04:34:55;-6.30;80.10
68826;DHT22;55841;53.392;10.086;2022-12-18T04:37:21;-6.30;79.80
68826;DHT22;55841;53.392;10.086;2022-12-18T04:39:47;-6.40;79.80
68826;DHT22;55841;53.392;10.086;2022-12-18T04:42:12;-6.40;79.90
68826;DHT22;55841;53.392;10.086;2022-12-18T04:44:38;-6.40;79.80
68826;DHT22;55841;53.392;10.086;2022-12-18T04:47:03;-6.50;79.80
68826;DHT22;55841;53.392;10.086;2022-12-18T04:49:29;-6.50;79.80
68826;DHT22;55841;53.392;10.086;2022-12-18T04:51:54;-6.60;80.10
68826;DHT22;55841;53.392;10.086;2022-12-18T04:54:20;-6.60;80.20
68826;DHT22;55841;53.392;10.086;2022-12-18T04:56:46;-6.60;80.10
68826;DHT22;55841;53.392;10.086;2022-12-18T04:59:11;-6.60;80.10
68826;DHT22;55841;53.392;10.086;2022-12-18T05:01:37;-6.40;80.20
68826;DHT22;55841;53.392;10.086;2022-12-18T05:04:02;-6.60;80.30
68826;DHT22;55841;53.392;10.086;2022-12-18T05:06:28;-6.60;80.20
68826;DHT22;55841;53.392;10.086;2022-12-18T05:08:54;-6.70;80.10
68826;DHT22;55841;53.392;10.086;2022-12-18T05:11:19;-6.70;79.80
68826;DHT22;55841;53.392;10.086;2022-12-18T05:13:46;-6.70;79.60
68826;DHT22;55841;53.392;10.086;2022-12-18T05:16:13;-6.80;79.40
68826;DHT22;55841;53.392;10.086;2022-12-18T05:18:39;-6.80;79.50
68826;DHT22;55841;53.392;10.086;2022-12-18T05:21:04;-6.80;79.70
68826;DHT22;55841;53.392;10.086;2022-12-18T05:23:30;-6.80;79.80
68826;DHT22;55841;53.392;10.086;2022-12-18T05:25:57;-6.80;80.00
68826;DHT22;55841;53.392;10.086;2022-12-18T05:28:24;-6.90;80.00
68826;DHT22;55841;53.392;10.086;2022-12-18T05:30:51;-6.90;79.80
68826;DHT22;55841;53.392;10.086;2022-12-18T05:33:18;-6.90;79.60
68826;DHT22;55841;53.392;10.086;2022-12-18T05:35:49;-7.00;79.50
68826;DHT22;55841;53.392;10.086;2022-12-18T05:38:15;-7.00;79.20
68826;DHT22;55841;53.392;10.086;2022-12-18T05:40:42;-7.00;78.90
68826;DHT22;55841;53.392;10.086;2022-12-18T05:43:07;-7.10;78.90
68826;DHT22;55841;53.392;10.086;2022-12-18T05:45:37;-7.10;78.90
68826;DHT22;55841;53.392;10.086;2022-12-18T05:48:02;-7.20;79.10
68826;DHT22;55841;53.392;10.086;2022-12-18T05:50:28;-7.20;79.20
68826;DHT22;55841;53.392;10.086;2022-12-18T05:52:53;-7.20;79.30
68826;DHT22;55841;53.392;10.086;2022-12-18T05:55:19;-7.20;79.20
68826;DHT22;55841;53.392;10.086;2022-12-18T05:57:44;-7.20;79.40
68826;DHT22;55841;53.392;10.086;2022-12-18T06:00:10;-7.10;79.50
68826;DHT22;55841;53.392;10.086;2022-12-18T06:02:36;-7.30;79.50
68826;DHT22;55841;53.392;10.086;2022-12-18T06:05:02;-7.30;79.50
68826;DHT22;55841;53.392;10.086;2022-12-18T06:07:27;-7.30;79.50
68826;DHT22;55841;53.392;10.086;2022-12-18T06:09:52;-7.30;79.50
68826;DHT22;55841;53.392;10.086;2022-12-18T06:12:18;-7.10;79.70
68826;DHT22;55841;53.392;10.086;2022-12-18T06:14:43;-7.20;79.90
68826;DHT22;55841;53.392;10.086;2022-12-18T06:17:09;-7.40;79.70
68826;DHT22;55841;53.392;10.086;2022-12-18T06:19:34;-7.40;79.60
68826;DHT22;55841;53.392;10.086;2022-12-18T06:22:00;-7.40;79.50
68826;DHT22;55841;53.392;10.086;2022-12-18T06:24:25;-7.30;79.40
68826;DHT22;55841;53.392;10.086;2022-12-18T06:26:51;-7.30;79.50
68826;DHT22;55841;53.392;10.086;2022-12-18T06:29:16;-7.40;79.70
68826;DHT22;55841;53.392;10.086;2022-12-18T06:31:42;-7.50;79.80
68826;DHT22;55841;53.392;10.086;2022-12-18T06:34:07;-7.50;79.90
68826;DHT22;55841;53.392;10.086;2022-12-18T06:36:33;-7.50;79.90
68826;DHT22;55841;53.392;10.086;2022-12-18T06:38:58;-7.60;80.00
68826;DHT22;55841;53.392;10.086;2022-12-18T06:41:24;-7.60;79.80
68826;DHT22;55841;53.392;10.086;2022-12-18T06:43:50;-7.60;79.70
68826;DHT22;55841;53.392;10.086;2022-12-18T06:46:15;-7.60;79.40
68826;DHT22;55841;53.392;10.086;2022-12-18T06:48:41;-7.60;79.40
68826;DHT22;55841;53.392;10.086;2022-12-18T06:51:07;-7.70;79.50
68826;DHT22;55841;53.392;10.086;2022-12-18T06:53:33;-7.70;79.70
68826;DHT22;55841;53.392;10.086;2022-12-18T06:56:03;-7.70;79.80
68826;DHT22;55841;53.392;10.086;2022-12-18T06:58:28;-7.50;79.90
68826;DHT22;55841;53.392;10.086;2022-12-18T07:01:00;-7.50;80.30
68826;DHT22;55841;53.392;10.086;2022-12-18T07:03:25;-7.70;80.30
68826;DHT22;55841;53.392;10.086;2022-12-18T07:05:51;-7.70;80.10
68826;DHT22;55841;53.392;10.086;2022-12-18T07:08:16;-7.70;79.90
68826;DHT22;55841;53.392;10.086;2022-12-18T07:10:42;-7.50;79.60
68826;DHT22;55841;53.392;10.086;2022-12-18T07:13:31;-7.70;79.20
68826;DHT22;55841;53.392;10.086;2022-12-18T07:16:55;-7.80;79.00
68826;DHT22;55841;53.392;10.086;2022-12-18T07:19:04;-7.80;79.10
68826;DHT22;55841;53.392;10.086;2022-12-18T07:21:30;-7.60;79.40
68826;DHT22;55841;53.392;10.086;2022-12-18T07:23:56;-7.70;79.40
68826;DHT22;55841;53.392;10.086;2022-12-18T07:26:22;-7.50;79.30
68826;DHT22;55841;53.392;10.086;2022-12-18T07:28:48;-7.70;79.00
68826;DHT22;55841;53.392;10.086;2022-12-18T07:31:17;-7.70;78.90
68826;DHT22;55841;53.392;10.086;2022-12-18T07:33:44;-7.70;78.90
68826;DHT22;55841;53.392;10.086;2022-12-18T07:36:10;-7.70;78.90
68826;DHT22;55841;53.392;10.086;2022-12-18T07:38:36;-7.70;79.10
68826;DHT22;55841;53.392;10.086;2022-12-18T07:41:08;-7.70;79.10
68826;DHT22;55841;53.392;10.086;2022-12-18T07:43:34;-7.70;79.00
68826;DHT22;55841;53.392;10.086;2022-12-18T07:46:00;-7.70;79.00
68826;DHT22;55841;53.392;10.086;2022-12-18T07:48:25;-7.70;79.00
68826;DHT22;55841;53.392;10.086;2022-12-18T07:50:51;-7.70;79.00
68826;DHT22;55841;53.392;10.086;2022-12-18T07:53:17;-7.70;79.20
68826;DHT22;55841;53.392;10.086;2022-12-18T07:55:42;-7.70;79.20
68826;DHT22;55841;53.392;10.086;2022-12-18T07:58:08;-7.70;79.30
68826;DHT22;55841;53.392;10.086;2022-12-18T08:00:34;-7.60;79.10
68826;DHT22;55841;53.392;10.086;2022-12-18T08:03:00;-7.60;79.00
68826;DHT22;55841;53.392;10.086;2022-12-18T08:05:26;-7.60;78.90
68826;DHT22;55841;53.392;10.086;2022-12-18T08:07:52;-7.60;79.00
68826;DHT22;55841;53.392;10.086;2022-12-18T08:10:17;-7.50;79.10
68826;DHT22;55841;53.392;10.086;2022-12-18T08:12:43;-7.50;79.10
68826;DHT22;55841;53.392;10.086;2022-12-18T08:15:09;-7.50;79.00
68826;DHT22;55841;53.392;10.086;2022-12-18T08:17:34;-7.50;79.10
68826;DHT22;55841;53.392;10.086;2022-12-18T08:20:00;-7.40;79.00
68826;DHT22;55841;53.392;10.086;2022-12-18T08:22:26;-7.40;79.10
68826;DHT22;55841;53.392;10.086;2022-12-18T08:24:51;-7.40;79.10
68826;DHT22;55841;53.392;10.086;2022-12-18T08:27:17;-7.40;79.10
68826;DHT22;55841;53.392;10.086;2022-12-18T08:29:42;-7.30;79.00
68826;DHT22;55841;53.392;10.086;2022-12-18T08:32:08;-7.30;79.20
68826;DHT22;55841;53.392;10.086;2022-12-18T08:34:33;-7.10;79.10
68826;DHT22;55841;53.392;10.086;2022-12-18T08:36:59;-7.30;79.30
68826;DHT22;55841;53.392;10.086;2022-12-18T08:39:24;-7.00;79.90
68826;DHT22;55841;53.392;10.086;2022-12-18T08:41:50;-7.20;80.00
68826;DHT22;55841;53.392;10.086;2022-12-18T08:44:15;-7.10;80.10
68826;DHT22;55841;53.392;10.086;2022-12-18T08:46:42;-6.70;80.40
68826;DHT22;55841;53.392;10.086;2022-12-18T08:49:08;-6.90;80.90
68826;DHT22;55841;53.392;10.086;2022-12-18T08:51:35;-6.80;81.00
68826;DHT22;55841;53.392;10.086;2022-12-18T08:54:00;-6.70;81.50
68826;DHT22;55841;53.392;10.086;2022-12-18T08:56:26;-6.50;83.30
68826;DHT22;55841;53.392;10.086;2022-12-18T08:58:53;-6.40;83.20
68826;DHT22;55841;53.392;10.086;2022-12-18T09:01:19;-6.30;82.70
68826;DHT22;55841;53.392;10.086;2022-12-18T09:03:51;-6.30;82.10
68826;DHT22;55841;53.392;10.086;2022-12-18T09:06:18;-6.00;82.70
68826;DHT22;55841;53.392;10.086;2022-12-18T09:08:44;-6.00;82.30
68826;DHT22;55841;53.392;10.086;2022-12-18T09:11:23;-5.90;82.10
68826;DHT22;55841;53.392;10.086;2022-12-18T09:13:50;-5.60;82.00
68826;DHT22;55841;53.392;10.086;2022-12-18T09:16:16;-5.70;82.30
68826;DHT22;55841;53.392;10.086;2022-12-18T09:18:41;-5.50;82.60
68826;DHT22;55841;53.392;10.086;2022-12-18T09:21:18;-5.30;83.10
68826;DHT22;55841;53.392;10.086;2022-12-18T09:23:55;-5.10;83.30
68826;DHT22;55841;53.392;10.086;2022-12-18T09:26:22;-4.80;82.80
68826;DHT22;55841;53.392;10.086;2022-12-18T09:28:48;-4.60;82.20
68826;DHT22;55841;53.392;10.086;2022-12-18T09:31:14;-4.40;81.30
68826;DHT22;55841;53.392;10.086;2022-12-18T09:33:40;-4.20;80.40
68826;DHT22;55841;53.392;10.086;2022-12-18T09:36:08;-4.00;80.00
68826;DHT22;55841;53.392;10.086;2022-12-18T09:38:34;-3.90;79.40
68826;DHT22;55841;53.392;10.086;2022-12-18T09:41:28;-3.70;78.70
68826;DHT22;55841;53.392;10.086;2022-12-18T09:44:04;-3.50;78.20
68826;DHT22;55841;53.392;10.086;2022-12-18T09:46:33;-3.20;77.20
68826;DHT22;55841;53.392;10.086;2022-12-18T09:49:01;-3.00;76.10
68826;DHT22;55841;53.392;10.086;2022-12-18T09:51:37;-3.00;75.40
68826;DHT22;55841;53.392;10.086;2022-12-18T09:54:07;-2.90;75.10
68826;DHT22;55841;53.392;10.086;2022-12-18T09:56:39;-2.50;74.70
68826;DHT22;55841;53.392;10.086;2022-12-18T09:59:05;-2.60;74.30
68826;DHT22;55841;53.392;10.086;2022-12-18T10:01:32;-2.50;73.80
68826;DHT22;55841;53.392;10.086;2022-12-18T10:03:58;-2.30;73.40
68826;DHT22;55841;53.392;10.086;2022-12-18T10:09:11;-1.90;72.00
68826;DHT22;55841;53.392;10.086;2022-12-18T10:12:14;-1.80;71.00
68826;DHT22;55841;53.392;10.086;2022-12-18T10:22:43;-1.30;69.30
68826;DHT22;55841;53.392;10.086;2022-12-18T10:25:43;-1.30;69.10
68826;DHT22;55841;53.392;10.086;2022-12-18T10:28:15;-1.20;68.50
68826;DHT22;55841;53.392;10.086;2022-12-18T10:30:42;-0.90;68.80
68826;DHT22;55841;53.392;10.086;2022-12-18T10:33:20;-1.00;68.30
68826;DHT22;55841;53.392;10.086;2022-12-18T10:35:50;-0.80;68.30
68826;DHT22;55841;53.392;10.086;2022-12-18T10:40:59;-0.60;67.10
68826;DHT22;55841;53.392;10.086;2022-12-18T10:43:35;-0.50;67.10
68826;DHT22;55841;53.392;10.086;2022-12-18T10:51:00;0.10;66.30
68826;DHT22;55841;53.392;10.086;2022-12-18T10:53:28;0.10;65.80
68826;DHT22;55841;53.392;10.086;2022-12-18T10:55:56;0.10;65.50
68826;DHT22;55841;53.392;10.086;2022-12-18T10:58:31;0.20;66.00
68826;DHT22;55841;53.392;10.086;2022-12-18T11:03:45;0.60;65.20
68826;DHT22;55841;53.392;10.086;2022-12-18T11:06:14;0.80;64.60
68826;DHT22;55841;53.392;10.086;2022-12-18T11:08:53;1.00;64.00
68826;DHT22;55841;53.392;10.086;2022-12-18T11:11:23;1.10;62.70
68826;DHT22;55841;53.392;10.086;2022-12-18T11:13:58;1.20;62.50
68826;DHT22;55841;53.392;10.086;2022-12-18T11:16:24;1.30;61.90
68826;DHT22;55841;53.392;10.086;2022-12-18T11:18:49;1.30;61.80
68826;DHT22;55841;53.392;10.086;2022-12-18T11:21:15;1.40;61.60
68826;DHT22;55841;53.392;10.086;2022-12-18T11:23:50;1.40;61.40
68826;DHT22;55841;53.392;10.086;2022-12-18T11:26:16;1.40;61.50
68826;DHT22;55841;53.392;10.086;2022-12-18T11:28:50;1.40;61.70
68826;DHT22;55841;53.392;10.086;2022-12-18T11:31:25;1.40;61.30
68826;DHT22;55841;53.392;10.086;2022-12-18T11:34:01;1.50;61.30
68826;DHT22;55841;53.392;10.086;2022-12-18T11:36:38;1.40;61.40
68826;DHT22;55841;53.392;10.086;2022-12-18T11:42:04;1.10;62.90
68826;DHT22;55841;53.392;10.086;2022-12-18T11:49:55;0.50;64.00
68826;DHT22;55841;53.392;10.086;2022-12-18T11:52:25;0.50;65.00
68826;DHT22;55841;53.392;10.086;2022-12-18T11:54:58;0.60;64.70
68826;DHT22;55841;53.392;10.086;2022-12-18T12:00:21;0.80;64.10
68826;DHT22;55841;53.392;10.086;2022-12-18T12:03:18;0.90;63.60
68826;DHT22;55841;53.392;10.086;2022-12-18T12:24:51;0.90;64.00
68826;DHT22;55841;53.392;10.086;2022-12-18T12:27:41;0.80;64.00
68826;DHT22;55841;53.392;10.086;2022-12-18T12:30:20;0.70;64.80
68826;DHT22;55841;53.392;10.086;2022-12-18T12:33:15;0.50;65.30
68826;DHT22;55841;53.392;10.086;2022-12-18T12:41:06;0.00;67.30
68826;DHT22;55841;53.392;10.086;2022-12-18T12:43:42;-0.10;67.50
68826;DHT22;55841;53.392;10.086;2022-12-18T12:46:10;-0.20;67.90
68826;DHT22;55841;53.392;10.086;2022-12-18T12:48:58;-0.20;67.90
68826;DHT22;55841;53.392;10.086;2022-12-18T12:51:35;-0.20;67.90
68826;DHT22;55841;53.392;10.086;2022-12-18T12:54:11;-0.20;67.60
68826;DHT22;55841;53.392;10.086;2022-12-18T12:57:09;-0.20;67.60
68826;DHT22;55841;53.392;10.086;2022-12-18T12:59:47;-0.30;67.10
68826;DHT22;55841;53.392;10.086;2022-12-18T13:07:59;-0.50;67.70
68826;DHT22;55841;53.392;10.086;2022-12-18T13:10:32;-0.60;68.10
68826;DHT22;55841;53.392;10.086;2022-12-18T13:13:12;-0.60;68.40
68826;DHT22;55841;53.392;10.086;2022-12-18T13:34:23;-0.90;68.80
68826;DHT22;55841;53.392;10.086;2022-12-18T13:36:50;-0.90;69.40
68826;DHT22;55841;53.392;10.086;2022-12-18T13:41:46;-1.20;69.80
68826;DHT22;55841;53.392;10.086;2022-12-18T13:46:46;-1.30;69.70
68826;DHT22;55841;53.392;10.086;2022-12-18T13:51:49;-1.50;70.70
68826;DHT22;55841;53.392;10.086;2022-12-18T13:54:34;-1.60;70.80
68826;DHT22;55841;53.392;10.086;2022-12-18T13:57:01;-1.70;71.30
68826;DHT22;55841;53.392;10.086;2022-12-18T13:59:38;-1.80;71.30
68826;DHT22;55841;53.392;10.086;2022-12-18T14:02:16;-1.90;71.90
68826;DHT22;55841;53.392;10.086;2022-12-18T14:04:45;-2.00;72.10
68826;DHT22;55841;53.392;10.086;2022-12-18T14:07:19;-2.10;72.50
68826;DHT22;55841;53.392;10.086;2022-12-18T14:09:51;-2.10;73.00
68826;DHT22;55841;53.392;10.086;2022-12-18T14:12:22;-2.20;73.20
68826;DHT22;55841;53.392;10.086;2022-12-18T14:14:51;-2.20;73.40
68826;DHT22;55841;53.392;10.086;2022-12-18T14:17:17;-2.30;73.60
68826;DHT22;55841;53.392;10.086;2022-12-18T14:19:48;-2.30;73.80
68826;DHT22;55841;53.392;10.086;2022-12-18T14:22:20;-2.40;73.90
68826;DHT22;55841;53.392;10.086;2022-12-18T14:24:46;-2.50;74.10
68826;DHT22;55841;53.392;10.086;2022-12-18T14:27:24;-2.50;74.50
68826;DHT22;55841;53.392;10.086;2022-12-18T14:29:50;-2.50;74.90
68826;DHT22;55841;53.392;10.086;2022-12-18T14:32:18;-2.60;75.10
68826;DHT22;55841;53.392;10.086;2022-12-18T14:34:49;-2.60;75.30
68826;DHT22;55841;53.392;10.086;2022-12-18T14:37:18;-2.70;75.50
68826;DHT22;55841;53.392;10.086;2022-12-18T14:39:59;-2.70;75.90
68826;DHT22;55841;53.392;10.086;2022-12-18T14:42:26;-2.70;76.00
68826;DHT22;55841;53.392;10.086;2022-12-18T14:47:58;-2.80;76.40
68826;DHT22;55841;53.392;10.086;2022-12-18T14:50:24;-2.80;76.70
68826;DHT22;55841;53.392;10.086;2022-12-18T14:52:50;-2.90;76.80
68826;DHT22;55841;53.392;10.086;2022-12-18T14:55:17;-2.90;77.10
68826;DHT22;55841;53.392;10.086;2022-12-18T14:57:42;-2.90;76.90
68826;DHT22;55841;53.392;10.086;2022-12-18T15:00:18;-2.90;77.00
68826;DHT22;55841;53.392;10.086;2022-12-18T15:02:46;-2.90;77.40
68826;DHT22;55841;53.392;10.086;2022-12-18T15:07:45;-3.00;77.70
68826;DHT22;55841;53.392;10.086;2022-12-18T15:18:00;-3.10;78.40
68826;DHT22;55841;53.392;10.086;2022-12-18T15:20:26;-3.10;78.50
68826;DHT22;55841;53.392;10.086;2022-12-18T15:22:52;-3.20;78.60
68826;DHT22;55841;53.392;10.086;2022-12-18T15:27:54;-3.20;78.80
68826;DHT22;55841;53.392;10.086;2022-12-18T15:30:25;-3.20;79.10
68826;DHT22;55841;53.392;10.086;2022-12-18T15:32:51;-3.20;79.00
68826;DHT22;55841;53.392;10.086;2022-12-18T15:37:44;-3.20;79.60
68826;DHT22;55841;53.392;10.086;2022-12-18T15:40:19;-3.20;79.60
68826;DHT22;55841;53.392;10.086;2022-12-18T15:42:45;-3.30;79.70
68826;DHT22;55841;53.392;10.086;2022-12-18T15:45:12;-3.20;80.20
68826;DHT22;55841;53.392;10.086;2022-12-18T15:47:38;-3.30;80.10
68826;DHT22;55841;53.392;10.086;2022-12-18T15:50:04;-3.30;80.30
68826;DHT22;55841;53.392;10.086;2022-12-18T15:52:31;-3.20;80.40
68826;DHT22;55841;53.392;10.086;2022-12-18T15:55:01;-3.30;80.40
68826;DHT22;55841;53.392;10.086;2022-12-18T15:57:27;-3.30;80.50
68826;DHT22;55841;53.392;10.086;2022-12-18T15:59:54;-2.90;80.10
68826;DHT22;55841;53.392;10.086;2022-12-18T16:02:20;-3.20;80.70
68826;DHT22;55841;53.392;10.086;2022-12-18T16:04:46;-3.20;80.70
68826;DHT22;55841;53.392;10.086;2022-12-18T16:07:12;-3.20;80.80
68826;DHT22;55841;53.392;10.086;2022-12-18T16:09:38;-3.30;81.10
68826;DHT22;55841;53.392;10.086;2022-12-18T16:12:04;-3.20;81.10
68826;DHT22;55841;53.392;10.086;2022-12-18T16:14:30;-3.20;81.40
68826;DHT22;55841;53.392;10.086;2022-12-18T16:17:02;-3.20;81.40
68826;DHT22;55841;53.392;10.086;2022-12-18T16:19:28;-3.20;81.50
68826;DHT22;55841;53.392;10.086;2022-12-18T16:21:56;-3.20;81.40
68826;DHT22;55841;53.392;10.086;2022-12-18T16:24:24;-3.20;81.70
68826;DHT22;55841;53.392;10.086;2022-12-18T16:26:51;-3.20;81.70
68826;DHT22;55841;53.392;10.086;2022-12-18T16:29:17;-3.20;81.80
68826;DHT22;55841;53.392;10.086;2022-12-18T16:31:43;-3.20;81.80
68826;DHT22;55841;53.392;10.086;2022-12-18T16:36:45;-3.20;81.80
68826;DHT22;55841;53.392;10.086;2022-12-18T16:39:10;-3.20;81.90
68826;DHT22;55841;53.392;10.086;2022-12-18T16:41:36;-3.20;81.90
68826;DHT22;55841;53.392;10.086;2022-12-18T16:44:02;-3.20;82.10
68826;DHT22;55841;53.392;10.086;2022-12-18T16:46:28;-3.20;82.00
68826;DHT22;55841;53.392;10.086;2022-12-18T16:48:53;-3.20;82.10
68826;DHT22;55841;53.392;10.086;2022-12-18T16:51:19;-3.20;82.10
68826;DHT22;55841;53.392;10.086;2022-12-18T16:53:44;-3.20;82.20
68826;DHT22;55841;53.392;10.086;2022-12-18T16:56:10;-3.10;82.30
68826;DHT22;55841;53.392;10.086;2022-12-18T16:58:35;-3.10;82.30
68826;DHT22;55841;53.392;10.086;2022-12-18T17:01:06;-3.10;81.90
68826;DHT22;55841;53.392;10.086;2022-12-18T17:03:31;-3.10;82.00
68826;DHT22;55841;53.392;10.086;2022-12-18T17:06:02;-3.10;82.10
68826;DHT22;55841;53.392;10.086;2022-12-18T17:08:27;-3.10;81.90
68826;DHT22;55841;53.392;10.086;2022-12-18T17:10:53;-3.10;81.90
68826;DHT22;55841;53.392;10.086;2022-12-18T17:13:18;-3.10;81.90
68826;DHT22;55841;53.392;10.086;2022-12-18T17:15:44;-3.00;81.90
68826;DHT22;55841;53.392;10.086;2022-12-18T17:18:09;-3.00;81.60
68826;DHT22;55841;53.392;10.086;2022-12-18T17:20:35;-3.00;81.50
68826;DHT22;55841;53.392;10.086;2022-12-18T17:23:00;-3.00;81.30
68826;DHT22;55841;53.392;10.086;2022-12-18T17:25:26;-2.90;81.10
68826;DHT22;55841;53.392;10.086;2022-12-18T17:27:51;-3.00;80.90
68826;DHT22;55841;53.392;10.086;2022-12-18T17:30:17;-3.00;81.00
68826;DHT22;55841;53.392;10.086;2022-12-18T17:32:42;-2.90;80.90
68826;DHT22;55841;53.392;10.086;2022-12-18T17:35:08;-2.90;81.10
68826;DHT22;55841;53.392;10.086;2022-12-18T17:37:33;-2.90;81.20
68826;DHT22;55841;53.392;10.086;2022-12-18T17:39:59;-2.80;81.20
68826;DHT22;55841;53.392;10.086;2022-12-18T17:42:24;-2.80;80.10